Time;durP1;ratioP1;P1;durP2;ratioP2;P2;SDS_P1;SDS_P2;PMS_P1;PMS_P2;Temp;Humidity;BMP_temperature;BMP_pressure;BME280_temperature;BME280_humidity;BME280_pressure;Samples;Min_cycle;Max_cycle;Signal;HPM_P1;HPM_P2
2021/12/31 00:02:30;;;;;;;225.23;81.63;;;7.90;99.90;;;;;;10269208;28;20042;-84
2021/12/31 00:07:30;;;;;;;235.03;78.53;;;8.00;99.90;;;;;;10254829;28;20031;-84
2021/12/31 00:12:32;;;;;;;186.30;63.77;;;8.00;99.90;;;;;;10273023;28;20105;-83
2021/12/31 00:17:32;;;;;;;223.53;73.43;;;8.00;99.90;;;;;;10255652;28;20046;-85
2021/12/31 00:27:34;;;;;;;161.93;55.07;;;8.00;99.90;;;;;;10288234;28;20475;-83
2021/12/31 00:32:34;;;;;;;163.43;58.97;;;8.00;99.90;;;;;;10283388;28;20391;-82
2021/12/31 00:37:37;;;;;;;199.10;64.87;;;8.00;99.90;;;;;;10286846;28;20042;-83
2021/12/31 00:42:39;;;;;;;158.07;61.27;;;8.00;99.90;;;;;;10267149;28;20030;-85
2021/12/31 00:47:40;;;;;;;222.90;67.87;;;8.00;99.90;;;;;;10233618;28;20158;-85
2021/12/31 00:52:41;;;;;;;184.37;57.47;;;8.00;99.90;;;;;;10245714;28;20066;-83
2021/12/31 00:57:42;;;;;;;178.57;60.83;;;8.00;99.90;;;;;;10285973;28;20055;-84
2021/12/31 01:02:46;;;;;;;208.37;71.30;;;8.00;99.90;;;;;;10280265;28;20478;-85
2021/12/31 01:07:46;;;;;;;235.23;72.67;;;8.00;99.90;;;;;;10284735;28;20712;-84
2021/12/31 01:12:47;;;;;;;167.83;60.67;;;8.10;99.90;;;;;;10264188;28;20023;-84
2021/12/31 01:22:49;;;;;;;183.37;67.30;;;8.10;99.90;;;;;;10258019;28;20039;-85
2021/12/31 01:27:49;;;;;;;176.37;64.23;;;8.20;99.90;;;;;;10252766;28;20045;-84
2021/12/31 01:32:50;;;;;;;234.13;74.63;;;8.20;99.90;;;;;;10285066;28;20061;-87
2021/12/31 01:37:51;;;;;;;208.77;77.03;;;8.20;99.90;;;;;;10285293;28;20050;-86
2021/12/31 01:42:52;;;;;;;209.70;78.73;;;8.30;99.90;;;;;;10285466;28;20047;-85
2021/12/31 01:52:58;;;;;;;250.30;80.53;;;8.40;99.90;;;;;;10289930;28;20098;-87
2021/12/31 01:58:00;;;;;;;232.23;77.00;;;8.40;99.90;;;;;;10251817;29;20039;-85
2021/12/31 02:03:01;;;;;;;187.77;65.60;;;8.50;99.90;;;;;;10268621;28;20027;-86
2021/12/31 02:08:03;;;;;;;228.83;71.23;;;8.50;99.90;;;;;;10274506;28;20414;-85
2021/12/31 02:13:05;;;;;;;301.90;95.07;;;8.60;99.90;;;;;;10266034;28;20019;-82
2021/12/31 02:18:09;;;;;;;264.73;99.33;;;8.60;99.90;;;;;;10275126;28;20105;-84
2021/12/31 02:23:26;;;;;;;189.80;72.60;;;8.60;99.90;;;;;;10267639;28;20583;-83
2021/12/31 02:28:27;;;;;;;155.37;60.83;;;8.60;99.90;;;;;;10251796;29;20456;-84
2021/12/31 02:33:28;;;;;;;149.97;59.53;;;8.70;99.90;;;;;;10268071;28;20023;-84
2021/12/31 02:38:29;;;;;;;236.10;76.60;;;8.70;99.90;;;;;;10252276;29;20031;-86
2021/12/31 02:43:30;;;;;;;217.47;72.57;;;8.80;99.90;;;;;;10258487;28;20047;-85
2021/12/31 02:48:31;;;;;;;207.80;76.83;;;8.70;99.90;;;;;;10289325;28;20475;-87
2021/12/31 02:53:40;;;;;;;198.10;74.87;;;8.70;99.90;;;;;;10271387;28;20038;-84
2021/12/31 02:58:41;;;;;;;184.40;70.70;;;8.70;99.90;;;;;;10250071;28;20527;-83
2021/12/31 03:03:42;;;;;;;161.93;60.90;;;8.70;99.90;;;;;;10283188;28;20035;-87
2021/12/31 03:08:50;;;;;;;139.67;50.37;;;8.80;99.90;;;;;;10289030;28;20410;-85
2021/12/31 03:13:52;;;;;;;110.13;42.27;;;8.90;99.90;;;;;;10277501;28;20110;-84
2021/12/31 03:18:55;;;;;;;94.87;36.07;;;8.90;99.90;;;;;;10281440;28;20043;-84
2021/12/31 03:23:58;;;;;;;118.30;37.93;;;8.90;99.90;;;;;;10272650;28;20039;-84
2021/12/31 03:28:58;;;;;;;176.13;51.10;;;8.90;99.90;;;;;;10290314;28;20031;-85
2021/12/31 03:33:59;;;;;;;280.87;82.33;;;8.90;99.90;;;;;;10285594;28;20026;-87
2021/12/31 03:39:00;;;;;;;237.97;78.20;;;8.90;99.90;;;;;;10270812;28;20046;-86
2021/12/31 03:44:00;;;;;;;195.03;66.40;;;8.90;99.90;;;;;;10290365;28;20073;-86
2021/12/31 03:49:01;;;;;;;208.83;55.90;;;8.80;99.90;;;;;;10269343;28;20027;-85
2021/12/31 03:54:02;;;;;;;205.70;53.33;;;8.90;99.90;;;;;;10288738;28;20035;-84
2021/12/31 03:59:02;;;;;;;179.23;50.53;;;8.80;99.90;;;;;;10286180;28;20039;-86
2021/12/31 04:04:03;;;;;;;261.07;65.70;;;8.80;99.90;;;;;;10251071;28;20465;-87
2021/12/31 04:09:04;;;;;;;166.83;55.40;;;8.70;99.90;;;;;;10287635;28;20034;-88
2021/12/31 04:14:05;;;;;;;216.10;57.60;;;8.70;99.90;;;;;;10282409;28;20039;-87
2021/12/31 04:19:05;;;;;;;237.80;61.07;;;8.70;99.90;;;;;;10275498;28;20097;-86
2021/12/31 04:24:14;;;;;;;174.63;53.43;;;8.70;99.90;;;;;;10268620;28;20035;-83
2021/12/31 04:29:15;;;;;;;187.90;50.93;;;8.70;99.90;;;;;;10248771;28;20054;-89
2021/12/31 04:34:17;;;;;;;181.43;50.77;;;8.60;99.90;;;;;;10244729;28;20031;-84
2021/12/31 04:39:17;;;;;;;217.23;52.73;;;8.60;99.90;;;;;;10277062;28;20042;-87
2021/12/31 04:44:18;;;;;;;222.93;52.00;;;8.60;99.90;;;;;;10270328;28;20463;-85
2021/12/31 04:49:19;;;;;;;200.93;54.67;;;8.50;99.90;;;;;;10282832;28;20035;-83
2021/12/31 04:54:20;;;;;;;237.20;61.23;;;8.50;99.90;;;;;;10267183;28;20045;-82
2021/12/31 04:59:21;;;;;;;150.50;48.27;;;8.50;99.90;;;;;;10258340;28;20039;-83
2021/12/31 05:04:22;;;;;;;137.70;41.93;;;8.50;99.90;;;;;;10255984;28;20164;-84
2021/12/31 05:09:22;;;;;;;147.70;43.47;;;8.50;99.90;;;;;;10269791;28;20163;-85
2021/12/31 05:14:23;;;;;;;168.33;47.87;;;8.50;99.90;;;;;;10269107;28;20102;-83
2021/12/31 05:19:24;;;;;;;143.43;39.80;;;8.50;99.90;;;;;;10281873;28;20042;-84
2021/12/31 05:24:25;;;;;;;146.53;44.70;;;8.60;99.90;;;;;;10252687;28;20043;-87
2021/12/31 05:29:26;;;;;;;137.60;43.37;;;8.60;99.90;;;;;;10280522;28;20037;-85
2021/12/31 05:34:27;;;;;;;171.63;47.97;;;8.60;99.90;;;;;;10285739;28;20038;-83
2021/12/31 05:39:27;;;;;;;122.93;39.97;;;8.60;99.90;;;;;;10281260;28;20496;-85
2021/12/31 05:44:29;;;;;;;180.07;47.93;;;8.70;99.90;;;;;;10326016;28;20054;-83
2021/12/31 05:49:29;;;;;;;206.33;55.73;;;8.60;99.90;;;;;;10335717;28;20594;-83
2021/12/31 05:54:30;;;;;;;147.80;44.77;;;8.60;99.90;;;;;;10316935;28;20191;-85
2021/12/31 05:59:31;;;;;;;147.27;47.53;;;8.60;99.90;;;;;;10334375;28;20053;-85
2021/12/31 06:04:31;;;;;;;143.33;44.20;;;8.60;99.90;;;;;;10292026;28;20039;-86
2021/12/31 06:09:34;;;;;;;156.40;49.67;;;8.60;99.90;;;;;;10258340;28;20043;-83
2021/12/31 06:14:35;;;;;;;124.20;46.77;;;8.60;99.90;;;;;;10292109;28;20411;-86
2021/12/31 06:19:38;;;;;;;154.67;58.47;;;8.70;99.90;;;;;;10274586;28;20050;-85
2021/12/31 06:24:41;;;;;;;155.87;54.57;;;8.80;99.90;;;;;;10285309;28;20085;-85
2021/12/31 06:35:43;;;;;;;220.73;77.73;;;8.90;99.90;;;;;;10273322;28;20077;-85
2021/12/31 06:40:44;;;;;;;158.17;60.17;;;8.90;99.90;;;;;;10274579;28;20050;-87
2021/12/31 06:51:55;;;;;;;149.03;58.93;;;9.00;99.90;;;;;;11355430;23;20058;-86
2021/12/31 06:56:56;;;;;;;162.07;56.87;;;9.00;99.90;;;;;;10329927;28;20660;-86
2021/12/31 07:01:57;;;;;;;104.57;41.23;;;9.00;99.90;;;;;;10306170;28;20030;-88
2021/12/31 07:06:58;;;;;;;119.13;45.57;;;9.00;99.90;;;;;;10328647;28;20018;-85
2021/12/31 07:11:59;;;;;;;202.37;58.67;;;9.00;99.90;;;;;;10329417;28;20034;-84
2021/12/31 07:17:00;;;;;;;187.17;57.13;;;9.00;99.90;;;;;;10312880;28;20034;-85
2021/12/31 07:22:01;;;;;;;173.63;52.07;;;9.00;99.90;;;;;;10330573;28;20054;-86
2021/12/31 08:39:57;;;;;;;244.33;93.00;;;9.20;99.90;;;;;;10208821;28;20420;-86
2021/12/31 08:44:57;;;;;;;201.27;72.77;;;9.20;99.90;;;;;;10206263;29;20059;-87
2021/12/31 08:49:58;;;;;;;168.27;63.20;;;9.30;99.90;;;;;;10206160;29;20143;-86
2021/12/31 08:54:59;;;;;;;134.73;56.57;;;9.20;99.90;;;;;;10208303;29;20392;-86
2021/12/31 08:59:59;;;;;;;133.93;59.50;;;9.20;99.90;;;;;;10207274;29;20035;-88
2021/12/31 09:11:02;;;;;;;171.73;73.00;;;9.10;99.90;;;;;;10205737;29;20665;-86
2021/12/31 09:16:03;;;;;;;223.97;98.67;;;9.10;99.90;;;;;;10206930;29;20051;-87
2021/12/31 09:50:21;;;;;;;253.00;121.15;;;9.10;99.90;;;;;;10246052;29;20507;-83
2021/12/31 09:55:34;;;;;;;215.52;99.90;;;9.20;99.90;;;;;;10227812;29;20093;-83
2021/12/31 10:24:40;;;;;;;118.73;60.70;;;9.60;99.90;;;;;;10228246;29;20046;-83
2021/12/31 10:30:07;;;;;;;154.10;69.77;;;9.60;99.90;;;;;;10235805;29;20506;-85
2021/12/31 10:35:20;;;;;;;130.75;62.85;;;9.70;99.90;;;;;;10244944;28;20046;-84
2021/12/31 10:40:31;;;;;;;101.13;52.67;;;9.80;99.90;;;;;;10274702;28;20027;-84
2021/12/31 10:52:40;;;;;;;98.00;48.93;;;9.80;99.90;;;;;;10221126;29;20472;-85
2021/12/31 10:57:41;;;;;;;98.80;48.07;;;9.70;99.90;;;;;;10189559;29;20099;-82
2021/12/31 11:02:45;;;;;;;84.93;43.45;;;9.80;99.90;;;;;;10240313;29;20039;-82
2021/12/31 11:07:47;;;;;;;73.22;35.85;;;9.80;99.90;;;;;;10225791;29;20122;-82
2021/12/31 11:12:48;;;;;;;92.72;45.78;;;9.90;99.90;;;;;;10225580;28;20058;-85
2021/12/31 11:17:52;;;;;;;101.90;45.40;;;10.00;99.90;;;;;;10237748;29;20035;-81
2021/12/31 11:22:53;;;;;;;113.57;55.30;;;10.00;99.90;;;;;;10236345;29;20039;-81
2021/12/31 11:27:56;;;;;;;112.30;52.22;;;10.00;99.90;;;;;;10236095;28;20482;-83
2021/12/31 11:33:08;;;;;;;119.43;60.93;;;10.00;99.90;;;;;;10211271;29;20043;-82
2021/12/31 11:38:29;;;;;;;84.00;44.58;;;10.00;99.90;;;;;;10239136;29;20495;-84
2021/12/31 11:43:31;;;;;;;101.55;47.50;;;10.00;99.90;;;;;;10201609;29;20076;-81
2021/12/31 11:48:44;;;;;;;98.95;52.05;;;10.00;99.90;;;;;;10234160;29;20035;-81
2021/12/31 11:53:59;;;;;;;99.43;52.83;;;10.10;99.90;;;;;;10196712;29;20042;-83
2021/12/31 11:59:12;;;;;;;75.32;38.08;;;10.10;99.90;;;;;;10207895;29;20055;-85
2021/12/31 12:04:21;;;;;;;80.28;39.58;;;10.10;99.90;;;;;;10219617;29;20131;-85
2021/12/31 12:09:42;;;;;;;139.57;60.50;;;10.10;99.90;;;;;;10225619;29;20036;-87
2021/12/31 12:14:48;;;;;;;72.53;34.90;;;10.10;99.90;;;;;;10193301;29;20575;-85
2021/12/31 12:19:49;;;;;;;72.50;36.10;;;10.10;99.90;;;;;;10223560;29;20039;-86
2021/12/31 12:24:52;;;;;;;78.07;39.83;;;10.00;99.90;;;;;;10222153;29;20032;-83
2021/12/31 12:29:54;;;;;;;69.05;34.65;;;10.00;99.90;;;;;;10219194;29;20515;-85
2021/12/31 12:34:55;;;;;;;80.63;38.97;;;10.00;99.90;;;;;;10224067;28;20055;-80
2021/12/31 12:40:00;;;;;;;71.43;37.15;;;9.90;99.90;;;;;;10208723;29;20036;-84
2021/12/31 12:45:05;;;;;;;75.20;35.30;;;9.90;99.90;;;;;;10223906;29;20042;-81
2021/12/31 12:50:10;;;;;;;63.42;31.50;;;9.90;99.90;;;;;;10224202;29;20023;-81
2021/12/31 12:55:13;;;;;;;52.50;28.70;;;9.90;99.90;;;;;;10192692;29;20031;-83
2021/12/31 13:00:15;;;;;;;52.05;26.10;;;9.90;99.90;;;;;;10204660;29;20055;-83
2021/12/31 13:05:16;;;;;;;69.70;32.80;;;10.00;99.90;;;;;;10236910;29;20042;-82
2021/12/31 13:10:18;;;;;;;52.88;28.63;;;10.00;99.90;;;;;;10209315;29;20383;-81
2021/12/31 13:15:19;;;;;;;50.50;24.77;;;10.10;99.90;;;;;;10213585;29;20035;-81
2021/12/31 13:20:25;;;;;;;40.13;21.30;;;10.20;99.90;;;;;;10216817;29;20028;-86
2021/12/31 13:25:37;;;;;;;45.60;24.23;;;10.20;99.90;;;;;;10221000;29;20060;-83
2021/12/31 13:30:52;;;;;;;47.13;24.55;;;10.10;99.90;;;;;;10213962;29;20039;-86
2021/12/31 13:36:08;;;;;;;46.33;24.92;;;10.10;99.90;;;;;;10222519;29;20082;-84
2021/12/31 13:41:21;;;;;;;44.20;24.80;;;10.10;99.90;;;;;;10237436;29;20130;-85
2021/12/31 13:46:44;;;;;;;46.50;26.27;;;10.10;99.90;;;;;;10199288;28;20446;-87
2021/12/31 13:51:45;;;;;;;51.17;30.00;;;10.00;99.90;;;;;;10235274;29;20035;-87
2021/12/31 13:56:49;;;;;;;55.13;32.30;;;10.00;99.90;;;;;;10247334;28;20170;-84
2021/12/31 14:02:26;;;;;;;48.85;25.85;;;10.00;99.90;;;;;;10221800;29;20491;-86
2021/12/31 14:07:32;;;;;;;48.05;22.73;;;10.00;99.90;;;;;;10234806;29;20024;-86
2021/12/31 14:12:46;;;;;;;47.45;26.20;;;10.00;99.90;;;;;;10228455;29;20257;-82
2021/12/31 14:17:50;;;;;;;55.55;30.67;;;9.90;99.90;;;;;;10209794;29;20046;-85
2021/12/31 14:22:52;;;;;;;48.10;30.30;;;9.90;99.90;;;;;;10228990;29;20117;-84
2021/12/31 14:27:53;;;;;;;59.50;33.80;;;9.90;99.90;;;;;;10245610;29;20392;-85
2021/12/31 14:32:55;;;;;;;63.03;37.53;;;9.90;99.90;;;;;;10220882;29;20028;-85
2021/12/31 14:37:56;;;;;;;59.57;32.57;;;9.90;99.90;;;;;;10241493;29;20055;-86
2021/12/31 14:42:57;;;;;;;66.38;33.65;;;9.80;99.90;;;;;;10231697;29;20094;-84
2021/12/31 14:48:00;;;;;;;80.35;38.80;;;9.80;99.90;;;;;;10223320;28;20558;-87
2021/12/31 14:53:02;;;;;;;67.47;34.75;;;9.80;99.90;;;;;;10229496;29;20112;-88
2021/12/31 14:58:04;;;;;;;56.97;28.63;;;9.80;99.90;;;;;;10223615;28;20043;-86
2021/12/31 15:03:05;;;;;;;71.47;35.37;;;9.80;99.90;;;;;;10229283;29;20462;-88
2021/12/31 15:08:07;;;;;;;68.47;33.73;;;9.80;99.90;;;;;;10216394;29;20107;-91
2021/12/31 15:13:07;;;;;;;95.93;44.10;;;9.80;99.90;;;;;;10222309;29;20086;-89
2021/12/31 15:18:08;;;;;;;78.53;36.33;;;9.80;99.90;;;;;;10217795;29;20110;-88
2021/12/31 15:23:09;;;;;;;75.47;37.73;;;9.70;99.90;;;;;;10211298;29;20118;-88
2021/12/31 15:28:10;;;;;;;84.72;37.58;;;9.70;99.90;;;;;;10223302;29;20407;-87
2021/12/31 15:33:10;;;;;;;90.57;43.15;;;9.70;99.90;;;;;;10214010;29;20043;-85
2021/12/31 15:38:11;;;;;;;69.97;33.03;;;9.70;99.90;;;;;;10209371;28;20087;-87
2021/12/31 15:43:16;;;;;;;68.50;35.37;;;9.70;99.90;;;;;;10241405;29;20563;-85
2021/12/31 15:48:17;;;;;;;75.67;36.20;;;9.70;99.90;;;;;;10201610;29;20031;-85
2021/12/31 15:53:18;;;;;;;64.88;31.98;;;9.70;99.90;;;;;;10219376;29;20019;-87
2021/12/31 15:58:18;;;;;;;50.47;25.20;;;9.70;99.90;;;;;;10236954;29;20055;-87
2021/12/31 16:03:19;;;;;;;69.00;31.87;;;9.70;99.90;;;;;;10231497;29;20066;-86
2021/12/31 16:08:22;;;;;;;69.70;34.47;;;9.70;99.90;;;;;;10245854;28;20138;-86
2021/12/31 16:13:23;;;;;;;72.97;37.13;;;9.70;99.90;;;;;;10245023;28;20110;-87
2021/12/31 16:18:24;;;;;;;64.13;33.60;;;9.70;99.90;;;;;;10211111;29;20039;-88
2021/12/31 16:23:24;;;;;;;89.18;43.55;;;9.70;99.90;;;;;;10200914;29;20055;-87
2021/12/31 16:28:25;;;;;;;86.37;44.27;;;9.70;99.90;;;;;;10222368;29;20031;-87
2021/12/31 16:33:26;;;;;;;76.72;38.00;;;9.70;99.90;;;;;;10236609;29;20480;-86
2021/12/31 16:38:28;;;;;;;64.65;33.40;;;9.70;99.90;;;;;;10239479;29;20055;-86
2021/12/31 16:43:29;;;;;;;93.28;45.35;;;9.70;99.90;;;;;;10209170;29;20712;-88
2021/12/31 16:48:30;;;;;;;74.13;37.42;;;9.70;99.90;;;;;;10234693;29;20032;-87
2021/12/31 16:53:30;;;;;;;123.73;59.20;;;9.70;99.90;;;;;;10212710;29;20031;-86
2021/12/31 16:58:32;;;;;;;109.00;55.17;;;9.70;99.90;;;;;;10229883;29;20043;-87
2021/12/31 17:03:38;;;;;;;58.83;29.70;;;9.70;99.90;;;;;;10217048;29;20117;-87
2021/12/31 17:08:39;;;;;;;127.88;59.88;;;9.70;99.90;;;;;;10226840;29;20523;-88
2021/12/31 17:13:39;;;;;;;61.20;31.15;;;9.70;99.90;;;;;;10218150;29;20086;-89
2021/12/31 17:18:40;;;;;;;107.85;49.45;;;9.70;99.90;;;;;;10239387;29;20369;-88
2021/12/31 17:23:41;;;;;;;89.77;41.40;;;9.70;99.90;;;;;;10222551;28;20020;-87
2021/12/31 17:28:49;;;;;;;50.67;28.38;;;9.70;99.90;;;;;;10245622;29;20031;-89
2021/12/31 17:33:50;;;;;;;66.95;30.58;;;9.70;99.90;;;;;;10229685;29;20090;-87
2021/12/31 17:38:51;;;;;;;64.05;29.05;;;9.70;99.90;;;;;;10224819;28;20039;-89
2021/12/31 17:43:51;;;;;;;63.13;29.40;;;9.70;99.90;;;;;;10245964;29;20047;-88
2021/12/31 17:48:52;;;;;;;72.03;32.10;;;9.60;99.90;;;;;;10228661;28;20114;-88
2021/12/31 17:53:53;;;;;;;95.27;42.07;;;9.60;99.90;;;;;;10243990;29;20047;-90
2021/12/31 17:58:54;;;;;;;68.50;30.67;;;9.60;99.90;;;;;;10225011;29;20055;-88
2021/12/31 18:03:55;;;;;;;69.15;32.55;;;9.60;99.90;;;;;;10227681;28;20494;-86
2021/12/31 18:08:55;;;;;;;76.17;35.67;;;9.60;99.90;;;;;;10238090;28;20729;-87
2021/12/31 18:13:56;;;;;;;57.67;26.30;;;9.60;99.90;;;;;;10230865;29;20027;-88
2021/12/31 18:19:00;;;;;;;53.70;24.03;;;9.70;99.90;;;;;;10225484;29;20040;-89
2021/12/31 18:24:05;;;;;;;45.85;23.00;;;9.60;99.90;;;;;;10232454;29;20082;-90
2021/12/31 18:29:06;;;;;;;49.00;24.47;;;9.70;99.90;;;;;;10234875;28;20544;-89
2021/12/31 18:34:07;;;;;;;53.25;23.63;;;9.70;99.90;;;;;;10247561;28;20121;-87
2021/12/31 18:39:10;;;;;;;41.67;20.77;;;9.70;99.90;;;;;;10252104;29;20043;-88
2021/12/31 18:44:11;;;;;;;42.90;21.00;;;9.80;99.90;;;;;;10225403;29;20503;-87
2021/12/31 18:49:19;;;;;;;50.10;24.42;;;9.70;99.90;;;;;;10233788;29;20039;-88
2021/12/31 18:54:24;;;;;;;39.95;20.83;;;9.70;99.90;;;;;;10230564;29;20030;-90
2021/12/31 18:59:25;;;;;;;41.50;20.17;;;9.70;99.90;;;;;;10211849;29;20040;-86
2021/12/31 19:04:26;;;;;;;53.35;24.20;;;9.80;99.90;;;;;;10236316;29;20094;-88
2021/12/31 19:09:29;;;;;;;57.38;25.20;;;9.80;99.90;;;;;;10230644;29;20431;-87
2021/12/31 19:14:29;;;;;;;49.00;22.73;;;9.80;99.90;;;;;;10232494;29;20038;-88
2021/12/31 19:19:30;;;;;;;36.88;17.60;;;9.80;99.90;;;;;;10215277;29;20043;-87
2021/12/31 19:24:32;;;;;;;39.33;20.38;;;9.80;99.90;;;;;;10195403;29;20051;-88
2021/12/31 19:29:33;;;;;;;46.80;19.90;;;9.80;99.90;;;;;;10213803;29;20031;-87
2021/12/31 19:34:33;;;;;;;46.77;21.43;;;9.80;99.90;;;;;;10233197;29;20411;-88
2021/12/31 19:39:35;;;;;;;55.63;24.23;;;9.80;99.90;;;;;;10233444;29;20036;-89
2021/12/31 19:44:36;;;;;;;43.90;21.00;;;9.80;99.90;;;;;;10228063;28;20479;-87
2021/12/31 19:49:36;;;;;;;50.85;25.35;;;9.70;99.90;;;;;;10213860;29;20024;-84
2021/12/31 19:54:37;;;;;;;38.67;20.15;;;9.70;99.90;;;;;;10211491;29;20043;-87
2021/12/31 19:59:38;;;;;;;80.38;31.13;;;9.70;99.90;;;;;;10242744;29;20053;-88
2021/12/31 20:04:39;;;;;;;41.73;20.27;;;9.70;99.90;;;;;;10249130;29;20038;-89
2021/12/31 20:09:40;;;;;;;32.67;15.98;;;9.70;99.90;;;;;;10232981;29;20039;-89
2021/12/31 20:14:40;;;;;;;31.93;16.00;;;9.70;99.90;;;;;;10225232;29;20042;-90
2021/12/31 20:19:41;;;;;;;35.83;17.73;;;9.70;99.90;;;;;;10229527;29;20053;-87
2021/12/31 20:24:42;;;;;;;40.42;19.55;;;9.70;99.90;;;;;;10232319;29;20032;-87
2021/12/31 20:29:46;;;;;;;70.17;36.20;;;9.70;99.90;;;;;;10216993;29;20035;-88
2021/12/31 20:34:46;;;;;;;33.03;15.85;;;9.70;99.90;;;;;;10229967;29;20056;-88
2021/12/31 20:39:47;;;;;;;31.90;15.60;;;9.70;99.90;;;;;;10238975;29;20050;-85
2021/12/31 20:44:48;;;;;;;33.23;15.70;;;9.70;99.90;;;;;;10248121;29;20388;-86
2021/12/31 20:49:49;;;;;;;33.80;17.15;;;9.60;99.90;;;;;;10218479;29;20036;-88
2021/12/31 20:54:52;;;;;;;39.17;20.17;;;9.60;99.90;;;;;;10239404;29;20039;-89
2021/12/31 20:59:53;;;;;;;36.60;16.40;;;9.60;99.90;;;;;;10220434;29;20035;-88
2021/12/31 21:04:56;;;;;;;39.95;19.83;;;9.60;99.90;;;;;;10196298;29;20053;-89
2021/12/31 21:09:58;;;;;;;30.20;15.02;;;9.60;99.90;;;;;;10203999;29;20030;-89
2021/12/31 21:15:14;;;;;;;34.03;16.43;;;9.60;99.90;;;;;;10194431;29;20055;-89
2021/12/31 21:20:15;;;;;;;34.90;17.10;;;9.60;99.90;;;;;;10225582;29;20198;-89
2021/12/31 21:25:28;;;;;;;40.37;19.20;;;9.50;99.90;;;;;;10243100;29;20118;-89
2021/12/31 21:30:31;;;;;;;34.87;19.30;;;9.50;99.90;;;;;;10221862;29;20023;-90
2021/12/31 21:35:36;;;;;;;63.47;32.17;;;9.40;99.90;;;;;;10246669;29;20126;-88
2021/12/31 21:40:40;;;;;;;41.57;18.37;;;9.40;99.90;;;;;;10232415;29;20038;-87
2021/12/31 21:46:00;;;;;;;50.30;24.47;;;9.30;99.90;;;;;;10215850;29;20046;-89
2021/12/31 21:51:16;;;;;;;43.40;21.83;;;9.20;99.90;;;;;;10211834;29;20035;-91
2021/12/31 21:56:36;;;;;;;42.77;21.30;;;9.20;99.90;;;;;;10193355;29;20052;-89
2021/12/31 22:01:40;;;;;;;44.37;21.30;;;9.20;99.90;;;;;;10214441;29;20031;-88
2021/12/31 22:06:41;;;;;;;47.17;23.03;;;9.20;99.90;;;;;;10195427;29;20035;-87
2021/12/31 22:12:01;;;;;;;48.53;24.30;;;9.10;99.90;;;;;;10208961;29;20027;-89
2021/12/31 22:17:08;;;;;;;49.70;24.50;;;9.10;99.90;;;;;;10258452;29;20070;-89
2021/12/31 22:22:08;;;;;;;57.93;30.80;;;9.00;99.90;;;;;;10241122;29;20025;-87
2021/12/31 22:27:18;;;;;;;50.60;24.80;;;9.00;99.90;;;;;;10257947;29;20420;-90
2021/12/31 22:32:18;;;;;;;54.03;25.70;;;9.00;99.90;;;;;;10240327;29;20030;-88
2021/12/31 22:37:19;;;;;;;55.40;25.87;;;9.00;99.90;;;;;;10256613;29;20054;-88
2021/12/31 22:42:22;;;;;;;71.67;32.10;;;9.00;99.90;;;;;;10236617;29;20038;-89
2021/12/31 22:47:23;;;;;;;113.87;50.30;;;9.00;99.90;;;;;;10237029;29;20023;-87
2021/12/31 22:52:32;;;;;;;73.37;33.53;;;9.00;99.90;;;;;;10236094;29;20111;-91
2021/12/31 22:57:38;;;;;;;80.17;34.03;;;9.00;99.90;;;;;;10234174;29;20555;-88
2021/12/31 23:02:39;;;;;;;122.20;63.53;;;9.00;99.90;;;;;;10252291;29;20034;-88
2021/12/31 23:07:40;;;;;;;184.37;85.37;;;9.00;99.90;;;;;;10235312;29;20054;-88
2021/12/31 23:12:40;;;;;;;283.87;139.97;;;9.00;99.90;;;;;;10234235;29;20035;-87
2021/12/31 23:17:41;;;;;;;180.47;87.37;;;9.00;99.90;;;;;;10251092;29;20639;-87
2021/12/31 23:22:42;;;;;;;140.93;67.57;;;9.00;99.90;;;;;;10208878;29;20042;-90
2021/12/31 23:27:54;;;;;;;159.93;64.30;;;9.10;99.90;;;;;;10206103;29;20397;-88
2021/12/31 23:32:57;;;;;;;155.27;60.30;;;9.10;99.90;;;;;;10245982;29;20086;-87
2021/12/31 23:37:57;;;;;;;121.47;52.40;;;9.10;99.90;;;;;;10234097;29;20051;-87
2021/12/31 23:43:13;;;;;;;124.97;47.90;;;9.10;99.90;;;;;;10250764;29;20051;-90
2021/12/31 23:48:17;;;;;;;137.05;53.10;;;9.10;99.90;;;;;;10249139;29;20015;-90
2021/12/31 23:53:21;;;;;;;127.27;51.70;;;9.20;99.90;;;;;;10249265;29;20480;-89
2021/12/31 23:58:25;;;;;;;124.50;51.47;;;9.10;99.90;;;;;;10249840;29;20106;-87
